createdAt,value
2023-04-05T00:01:12.292Z,3.49
2023-04-05T00:03:15.126Z,3.52
2023-04-05T00:05:29.251Z,3.54
2023-04-05T00:07:34.130Z,3.54
2023-04-05T00:09:36.762Z,3.52
2023-04-05T00:11:39.318Z,3.48
2023-04-05T00:13:41.846Z,3.47
2023-04-05T00:15:44.626Z,3.46
2023-04-05T00:17:48.795Z,3.43
2023-04-05T00:19:57.828Z,3.42
2023-04-05T00:22:00.538Z,3.39
2023-04-05T00:24:03.478Z,3.39
2023-04-05T00:26:06.124Z,3.42
2023-04-05T00:28:08.712Z,3.43
2023-04-05T00:30:11.941Z,3.42
2023-04-05T00:32:14.552Z,3.37
2023-04-05T00:34:18.456Z,3.35
2023-04-05T00:36:21.804Z,3.38
2023-04-05T00:38:24.569Z,3.36
2023-04-05T00:40:27.571Z,3.40
2023-04-05T00:42:30.264Z,3.43
2023-04-05T00:44:34.738Z,3.33
2023-04-05T00:46:37.594Z,3.26
2023-04-05T00:48:40.799Z,3.25
2023-04-05T00:50:44.783Z,3.24
2023-04-05T00:52:48.018Z,3.20
2023-04-05T00:54:52.096Z,3.17
2023-04-05T00:56:56.748Z,3.21
2023-04-05T00:58:59.320Z,3.40
2023-04-05T01:01:06.604Z,3.25
2023-04-05T01:03:11.232Z,3.17
2023-04-05T01:05:26.570Z,3.14
2023-04-05T01:07:39.177Z,3.15
2023-04-05T01:09:46.852Z,3.16
2023-04-05T01:11:50.508Z,3.17
2023-04-05T01:13:59.677Z,3.17
2023-04-05T01:16:02.330Z,3.12
2023-04-05T01:18:05.999Z,3.12
2023-04-05T01:20:11.855Z,3.11
2023-04-05T01:22:43.661Z,3.10
2023-04-05T01:25:06.727Z,3.10
2023-04-05T01:27:15.408Z,3.11
2023-04-05T01:29:45.633Z,3.09
2023-04-05T01:31:52.274Z,3.10
2023-04-05T01:34:00.497Z,3.08
2023-04-05T01:36:08.463Z,3.08
2023-04-05T01:38:14.856Z,3.08
2023-04-05T01:40:17.985Z,3.02
2023-04-05T01:42:26.036Z,2.98
2023-04-05T01:44:28.580Z,2.97
2023-04-05T01:46:32.588Z,2.97
2023-04-05T01:48:35.262Z,2.98
2023-04-05T01:50:37.856Z,2.96
2023-04-05T01:52:40.404Z,2.96
2023-04-05T01:54:42.986Z,3.00
2023-04-05T01:56:46.098Z,3.01
2023-04-05T01:58:48.714Z,2.87
2023-04-05T02:00:55.051Z,2.83
2023-04-05T02:02:59.246Z,2.81
2023-04-05T02:05:01.946Z,2.72
2023-04-05T02:07:04.487Z,2.64
2023-04-05T02:09:07.022Z,2.65
2023-04-05T02:11:09.593Z,2.61
2023-04-05T02:13:13.649Z,2.61
2023-04-05T02:15:16.665Z,2.63
2023-04-05T02:17:19.704Z,2.66
2023-04-05T02:19:25.950Z,2.64
2023-04-05T02:21:28.628Z,2.66
2023-04-05T02:23:32.066Z,2.66
2023-04-05T02:25:34.637Z,2.67
2023-04-05T02:27:37.445Z,2.63
2023-04-05T02:29:40.200Z,2.59
2023-04-05T02:31:42.865Z,2.59
2023-04-05T02:33:45.443Z,2.57
2023-04-05T02:35:51.631Z,2.50
2023-04-05T02:37:54.289Z,2.49
2023-04-05T02:39:56.832Z,2.55
2023-04-05T02:41:59.889Z,2.55
2023-04-05T02:44:02.476Z,2.57
2023-04-05T02:46:05.237Z,2.54
2023-04-05T02:48:07.902Z,2.49
2023-04-05T02:50:10.678Z,2.43
2023-04-05T02:52:14.592Z,2.38
2023-04-05T02:54:17.151Z,2.36
2023-04-05T02:56:21.968Z,2.38
2023-04-05T02:58:24.937Z,2.36
2023-04-05T03:00:27.876Z,2.30
2023-04-05T03:02:30.548Z,2.30
2023-04-05T03:04:34.377Z,2.29
2023-04-05T03:06:36.966Z,2.29
2023-04-05T03:08:43.969Z,2.27
2023-04-05T03:10:47.182Z,2.26
2023-04-05T03:12:51.419Z,2.30
2023-04-05T03:14:54.065Z,2.26
2023-04-05T03:16:56.730Z,2.26
2023-04-05T03:18:59.932Z,2.24
2023-04-05T03:21:04.281Z,2.18
2023-04-05T03:23:08.984Z,2.12
2023-04-05T03:25:12.964Z,2.12
2023-04-05T03:27:15.612Z,2.10
2023-04-05T03:29:18.647Z,2.09
2023-04-05T03:31:21.521Z,2.06
2023-04-05T03:33:24.262Z,2.09
2023-04-05T03:35:26.868Z,2.03
2023-04-05T03:37:29.477Z,1.99
2023-04-05T03:39:32.085Z,2.00
2023-04-05T03:41:36.054Z,1.92
2023-04-05T03:43:38.749Z,1.89
2023-04-05T03:45:41.498Z,1.84
2023-04-05T03:47:44.522Z,1.82
2023-04-05T03:49:47.109Z,1.79
2023-04-05T03:51:49.632Z,1.78
2023-04-05T03:53:52.665Z,1.78
2023-04-05T03:55:55.722Z,1.77
2023-04-05T03:57:59.650Z,1.75
2023-04-05T04:00:02.206Z,1.78
2023-04-05T04:02:04.800Z,1.77
2023-04-05T04:04:07.396Z,1.75
2023-04-05T04:06:10.074Z,1.68
2023-04-05T04:08:13.236Z,1.71
2023-04-05T04:10:18.252Z,1.64
2023-04-05T04:12:20.930Z,1.60
2023-04-05T04:14:24.984Z,1.61
2023-04-05T04:16:28.805Z,1.58
2023-04-05T04:18:31.662Z,1.58
2023-04-05T04:20:34.424Z,1.55
2023-04-05T04:22:38.706Z,1.59
2023-04-05T04:24:41.384Z,1.52
2023-04-05T04:26:43.951Z,1.50
2023-04-05T04:28:46.624Z,1.50
2023-04-05T04:30:50.519Z,1.46
2023-04-05T04:32:54.566Z,1.43
2023-04-05T04:34:58.705Z,1.43
2023-04-05T04:37:01.619Z,1.44
2023-04-05T04:39:06.091Z,1.44
2023-04-05T04:41:09.006Z,1.44
2023-04-05T04:43:17.008Z,1.43
2023-04-05T04:45:20.641Z,1.47
2023-04-05T04:47:24.618Z,1.46
2023-04-05T04:49:28.308Z,1.48
2023-04-05T04:51:30.866Z,1.49
2023-04-05T04:53:33.399Z,1.50
2023-04-05T04:55:36.249Z,1.47
2023-04-05T04:57:38.788Z,1.48
2023-04-05T04:59:43.507Z,1.48
2023-04-05T05:01:46.800Z,1.44
2023-04-05T05:03:50.814Z,1.39
2023-04-05T05:05:53.750Z,1.34
2023-04-05T05:07:56.560Z,1.31
2023-04-05T05:09:59.169Z,1.30
2023-04-05T05:12:01.755Z,1.30
2023-04-05T05:14:04.335Z,1.32
2023-04-05T05:16:09.433Z,1.28
2023-04-05T05:18:12.422Z,1.32
2023-04-05T05:20:16.345Z,1.30
2023-04-05T05:22:18.928Z,1.32
2023-04-05T05:24:22.313Z,1.31
2023-04-05T05:26:24.992Z,1.29
2023-04-05T05:28:28.223Z,1.31
2023-04-05T05:30:31.059Z,1.34
2023-04-05T05:32:33.640Z,1.37
2023-04-05T05:34:36.559Z,1.39
2023-04-05T05:36:41.026Z,1.41
2023-04-05T05:38:44.042Z,1.45
2023-04-05T05:40:46.581Z,1.49
2023-04-05T05:42:49.133Z,1.48
2023-04-05T05:44:51.701Z,1.50
2023-04-05T05:46:54.298Z,1.50
2023-04-05T05:48:56.845Z,1.52
2023-04-05T05:51:01.696Z,1.56
2023-04-05T05:53:05.715Z,1.58
2023-04-05T05:55:09.330Z,1.59
2023-04-05T05:57:11.889Z,1.59
2023-04-05T05:59:14.750Z,1.62
2023-04-05T06:01:17.380Z,1.64
2023-04-05T06:03:21.620Z,1.65
2023-04-05T06:05:24.319Z,1.66
2023-04-05T06:07:26.863Z,1.70
2023-04-05T06:09:30.899Z,1.74
2023-04-05T06:11:34.298Z,1.77
2023-04-05T06:13:38.006Z,1.81
2023-04-05T06:15:40.595Z,1.85
2023-04-05T06:17:43.587Z,1.89
2023-04-05T06:19:46.147Z,1.91
2023-04-05T06:21:48.681Z,1.96
2023-04-05T06:23:51.267Z,2.01
2023-04-05T06:25:56.557Z,2.04
2023-04-05T06:27:59.152Z,2.09
2023-04-05T06:30:01.728Z,2.11
2023-04-05T06:32:04.463Z,2.12
2023-04-05T06:34:07.097Z,2.13
2023-04-05T06:36:10.462Z,2.12
2023-04-05T06:38:13.041Z,2.17
2023-04-05T06:40:15.855Z,2.22
2023-04-05T06:42:21.905Z,2.22
2023-04-05T06:44:24.634Z,2.22
2023-04-05T06:46:27.475Z,2.28
2023-04-05T06:48:30.138Z,2.27
2023-04-05T06:50:32.671Z,2.32
2023-04-05T06:52:35.839Z,2.28
2023-04-05T06:54:38.795Z,2.29
2023-04-05T06:56:41.534Z,2.29
2023-04-05T06:58:45.865Z,2.29
2023-04-05T07:00:48.701Z,2.31
2023-04-05T07:02:51.271Z,2.33
2023-04-05T07:04:53.803Z,2.36
2023-04-05T07:06:56.620Z,2.38
2023-04-05T07:08:59.156Z,2.42
2023-04-05T07:11:01.723Z,2.43
2023-04-05T07:13:04.264Z,2.47
2023-04-05T07:15:09.468Z,2.47
2023-04-05T07:17:12.117Z,2.50
2023-04-05T07:19:15.250Z,2.51
2023-04-05T07:21:18.063Z,2.54
2023-04-05T07:23:21.822Z,2.55
2023-04-05T07:25:25.858Z,2.59
2023-04-05T07:27:28.408Z,2.64
2023-04-05T07:29:31.110Z,2.70
2023-04-05T07:31:35.294Z,2.74
2023-04-05T07:33:37.950Z,2.77
2023-04-05T07:35:42.991Z,2.81
2023-04-05T07:37:45.637Z,2.81
2023-04-05T07:39:48.174Z,2.84
2023-04-05T07:41:51.541Z,2.85
2023-04-05T07:43:54.106Z,2.99
2023-04-05T07:46:04.835Z,3.05
2023-04-05T07:48:08.868Z,3.04
2023-04-05T07:50:14.941Z,3.03
2023-04-05T07:52:17.514Z,3.07
2023-04-05T07:54:20.091Z,3.09
2023-04-05T07:56:23.100Z,3.15
2023-04-05T07:58:26.191Z,3.17
2023-04-05T08:00:28.749Z,3.19
2023-04-05T08:02:31.395Z,3.22
2023-04-05T08:04:35.366Z,3.26
2023-04-05T08:06:38.007Z,3.28
2023-04-05T08:08:40.841Z,3.32
2023-04-05T08:10:43.531Z,3.43
2023-04-05T08:12:46.507Z,3.42
2023-04-05T08:14:49.057Z,3.44
2023-04-05T08:16:51.917Z,3.46
2023-04-05T08:18:54.515Z,3.47
2023-04-05T08:20:59.126Z,3.45
2023-04-05T08:23:01.681Z,3.48
2023-04-05T08:25:04.348Z,3.49
2023-04-05T08:27:06.912Z,3.54
2023-04-05T08:29:09.449Z,3.55
2023-04-05T08:31:13.723Z,3.59
2023-04-05T08:33:16.554Z,3.62
2023-04-05T08:35:19.192Z,3.68
2023-04-05T08:37:23.100Z,3.72
2023-04-05T08:39:26.665Z,3.73
2023-04-05T08:41:36.384Z,3.73
2023-04-05T08:43:48.632Z,3.80
2023-04-05T08:45:52.480Z,3.84
2023-04-05T08:47:55.095Z,3.87
2023-04-05T08:49:57.686Z,3.91
2023-04-05T08:52:03.701Z,3.97
2023-04-05T08:54:07.769Z,4.03
2023-04-05T08:56:11.985Z,4.07
2023-04-05T08:58:15.593Z,4.15
2023-04-05T09:00:19.798Z,4.16
2023-04-05T09:02:24.606Z,4.21
2023-04-05T09:04:31.230Z,4.26
2023-04-05T09:06:34.208Z,4.29
2023-04-05T09:08:37.246Z,4.31
2023-04-05T09:10:41.737Z,4.38
2023-04-05T09:12:44.458Z,4.38
2023-04-05T09:14:49.692Z,4.41
2023-04-05T09:16:52.905Z,4.46
2023-04-05T09:18:55.514Z,4.48
2023-04-05T09:21:03.644Z,4.49
2023-04-05T09:23:06.247Z,4.54
2023-04-05T09:25:09.466Z,4.66
2023-04-05T09:27:14.593Z,4.65
2023-04-05T09:29:30.144Z,4.67
2023-04-05T09:31:34.488Z,4.71
2023-04-05T09:33:37.614Z,4.75
2023-04-05T09:35:40.176Z,4.78
2023-04-05T09:37:53.255Z,4.81
2023-04-05T09:40:04.113Z,4.86
2023-04-05T09:42:08.364Z,5.02
2023-04-05T09:44:12.303Z,4.96
2023-04-05T09:46:31.171Z,4.95
2023-04-05T09:48:47.421Z,5.17
2023-04-05T09:50:50.644Z,5.10
2023-04-05T09:53:06.252Z,5.21
2023-04-05T09:55:09.884Z,5.18
2023-04-05T09:57:12.643Z,5.21
2023-04-05T09:59:18.167Z,5.22
2023-04-05T10:01:22.146Z,5.37
2023-04-05T10:03:26.765Z,5.29
2023-04-05T10:05:30.522Z,5.40
2023-04-05T10:07:33.317Z,5.36
2023-04-05T10:09:36.266Z,5.38
2023-04-05T10:11:39.880Z,5.46
2023-04-05T10:13:42.565Z,5.46
2023-04-05T10:15:49.876Z,5.43
2023-04-05T10:18:00.658Z,5.68
2023-04-05T10:20:11.747Z,5.82
2023-04-05T10:22:18.538Z,5.83
2023-04-05T10:24:34.805Z,5.88
2023-04-05T10:26:42.231Z,5.83
2023-04-05T10:28:49.028Z,5.81
2023-04-05T10:30:55.987Z,5.78
2023-04-05T10:33:12.313Z,5.79
2023-04-05T10:35:18.501Z,5.85
2023-04-05T10:37:31.510Z,5.82
2023-04-05T10:39:36.961Z,5.84
2023-04-05T10:41:43.494Z,5.91
2023-04-05T10:43:48.090Z,5.92
2023-04-05T10:45:55.682Z,5.90
2023-04-05T10:48:03.231Z,5.90
2023-04-05T10:50:13.429Z,5.93
2023-04-05T10:52:18.487Z,5.96
2023-04-05T10:54:21.548Z,5.97
2023-04-05T10:56:25.911Z,5.96
2023-04-05T10:58:29.882Z,5.97
2023-04-05T11:00:33.087Z,6.01
2023-04-05T11:02:37.233Z,6.01
2023-04-05T11:04:42.234Z,6.01
2023-04-05T11:09:18.470Z,6.12
2023-04-05T11:11:23.800Z,6.24
2023-04-05T11:13:49.466Z,6.23
2023-04-05T11:16:09.937Z,6.30
2023-04-05T11:18:22.933Z,6.34
2023-04-05T11:20:25.509Z,6.33
2023-04-05T11:22:29.427Z,6.34
2023-04-05T11:24:51.612Z,6.38
2023-04-05T11:26:56.127Z,6.49
2023-04-05T11:28:59.154Z,6.47
2023-04-05T11:31:14.918Z,6.49
2023-04-05T11:33:57.690Z,6.48
2023-04-05T11:36:02.886Z,6.50
2023-04-05T11:38:09.394Z,6.53
2023-04-05T11:40:29.163Z,6.55
2023-04-05T11:42:31.691Z,6.53
2023-04-05T11:44:46.026Z,6.55
2023-04-05T11:46:48.909Z,6.60
2023-04-05T11:48:52.969Z,6.61
2023-04-05T11:50:55.947Z,6.63
2023-04-05T11:53:15.485Z,6.66
2023-04-05T11:55:27.420Z,6.74
2023-04-05T11:57:29.839Z,6.79
2023-04-05T11:59:34.206Z,6.85
2023-04-05T12:01:36.988Z,6.84
2023-04-05T12:03:39.657Z,6.89
2023-04-05T12:05:51.231Z,6.97
2023-04-05T12:07:55.662Z,6.97
2023-04-05T12:10:03.872Z,7.03
2023-04-05T12:12:06.721Z,7.10
2023-04-05T12:14:09.244Z,7.13
2023-04-05T12:16:11.973Z,7.15
2023-04-05T12:18:15.758Z,7.17
2023-04-05T12:20:20.987Z,7.26
2023-04-05T12:22:24.988Z,7.33
2023-04-05T12:24:27.763Z,7.37
2023-04-05T12:26:34.159Z,7.41
2023-04-05T12:28:52.914Z,7.48
2023-04-05T12:30:57.985Z,7.57
2023-04-05T12:33:03.074Z,7.67
2023-04-05T12:35:11.769Z,7.77
2023-04-05T12:37:14.352Z,7.89
2023-04-05T12:39:18.405Z,8.12
2023-04-05T12:41:28.442Z,8.21
2023-04-05T12:43:40.386Z,8.33
2023-04-05T12:45:44.132Z,8.46
2023-04-05T12:47:51.814Z,8.66
2023-04-05T12:49:56.402Z,8.81
2023-04-05T12:52:02.817Z,9.07
2023-04-05T12:54:05.504Z,9.21
2023-04-05T12:56:11.488Z,9.38
2023-04-05T12:58:14.438Z,9.54
2023-04-05T13:00:17.896Z,9.71
2023-04-05T13:02:20.482Z,9.90
2023-04-05T13:04:24.253Z,10.10
2023-04-05T13:06:27.294Z,10.32
2023-04-05T13:08:29.919Z,10.50
2023-04-05T13:10:32.501Z,10.76
2023-04-05T13:12:36.432Z,11.03
2023-04-05T13:14:39.046Z,11.36
2023-04-05T13:16:41.632Z,11.70
2023-04-05T13:18:44.367Z,12.02
2023-04-05T13:20:47.260Z,12.24
2023-04-05T13:22:49.911Z,12.42
2023-04-05T13:24:53.862Z,12.59
2023-04-05T13:26:56.448Z,12.80
2023-04-05T13:29:00.472Z,12.93
2023-04-05T13:31:06.223Z,13.03
2023-04-05T13:33:08.933Z,13.14
2023-04-05T13:35:11.684Z,13.28
2023-04-05T13:37:14.257Z,13.36
2023-04-05T13:39:16.771Z,13.57
2023-04-05T13:41:19.385Z,13.77
2023-04-05T13:43:21.977Z,14.07
2023-04-05T13:45:26.217Z,14.17
2023-04-05T13:47:28.823Z,14.33
2023-04-05T13:49:31.459Z,14.69
2023-04-05T13:51:34.398Z,14.92
2023-04-05T13:53:36.958Z,14.89
2023-04-05T13:55:39.738Z,15.06
2023-04-05T13:57:42.407Z,15.18
2023-04-05T13:59:45.040Z,15.26
2023-04-05T14:01:49.035Z,15.41
2023-04-05T14:03:51.800Z,15.52
2023-04-05T14:05:55.663Z,15.67
2023-04-05T14:07:58.411Z,15.80
2023-04-05T14:10:02.373Z,15.97
2023-04-05T14:12:08.613Z,15.89
2023-04-05T14:14:11.179Z,15.81
2023-04-05T14:16:13.803Z,15.73
2023-04-05T14:18:17.751Z,15.67
2023-04-05T14:20:20.368Z,15.56
2023-04-05T14:22:23.003Z,15.60
2023-04-05T14:24:25.617Z,15.68
2023-04-05T14:26:29.096Z,15.68
2023-04-05T14:28:31.681Z,15.54
2023-04-05T14:30:34.303Z,15.51
2023-04-05T14:32:37.054Z,15.47
2023-04-05T14:34:41.019Z,15.31
2023-04-05T14:36:43.604Z,15.34
2023-04-05T14:38:46.183Z,15.14
2023-04-05T14:40:48.771Z,15.00
2023-04-05T14:42:51.369Z,14.94
2023-04-05T14:44:53.926Z,14.97
2023-04-05T14:46:56.538Z,15.03
2023-04-05T14:48:59.090Z,15.02
2023-04-05T14:51:02.991Z,14.94
2023-04-05T14:53:05.574Z,14.89
2023-04-05T14:55:08.997Z,14.85
2023-04-05T14:57:11.677Z,14.96
2023-04-05T14:59:14.312Z,15.01
2023-04-05T15:01:17.183Z,15.11
2023-04-05T15:03:20.047Z,15.18
2023-04-05T15:05:22.926Z,15.21
2023-04-05T15:07:26.992Z,15.18
2023-04-05T15:09:29.531Z,15.11
2023-04-05T15:11:34.212Z,15.06
2023-04-05T15:13:36.806Z,15.01
2023-04-05T15:15:39.848Z,15.00
2023-04-05T15:17:42.404Z,14.82
2023-04-05T15:19:44.977Z,14.88
2023-04-05T15:21:47.645Z,14.83
2023-04-05T15:23:51.514Z,14.76
2023-04-05T15:25:54.047Z,14.70
2023-04-05T15:27:59.621Z,14.64
2023-04-05T15:30:03.729Z,14.60
2023-04-05T15:32:06.535Z,14.55
2023-04-05T15:34:09.091Z,14.53
2023-04-05T15:36:11.682Z,14.50
2023-04-05T15:38:14.289Z,14.49
2023-04-05T15:40:18.330Z,14.43
2023-04-05T15:42:21.771Z,14.36
2023-04-05T15:44:24.456Z,14.29
2023-04-05T15:46:28.466Z,14.42
2023-04-05T15:48:31.113Z,14.28
2023-04-05T15:50:33.646Z,14.26
2023-04-05T15:52:36.761Z,14.26
2023-04-05T15:54:39.388Z,14.25
2023-04-05T15:56:43.283Z,14.21
2023-04-05T15:58:45.982Z,14.12
2023-04-05T16:00:48.598Z,14.02
2023-04-05T16:02:52.910Z,13.94
2023-04-05T16:04:57.356Z,13.87
2023-04-05T16:06:59.975Z,13.81
2023-04-05T16:09:02.752Z,13.72
2023-04-05T16:11:08.329Z,13.64
2023-04-05T16:13:12.250Z,13.57
2023-04-05T16:15:14.922Z,13.57
2023-04-05T16:17:17.509Z,13.49
2023-04-05T16:19:20.100Z,13.49
2023-04-05T16:21:22.982Z,13.48
2023-04-05T16:23:25.604Z,13.42
2023-04-05T16:25:28.233Z,13.32
2023-04-05T16:27:30.851Z,13.28
2023-04-05T16:29:34.958Z,13.23
2023-04-05T16:31:37.580Z,13.18
2023-04-05T16:33:40.115Z,13.13
2023-04-05T16:35:42.675Z,13.12
2023-04-05T16:37:46.535Z,13.04
2023-04-05T16:39:49.096Z,13.01
2023-04-05T16:41:51.716Z,12.95
2023-04-05T16:43:54.436Z,12.90
2023-04-05T16:45:58.330Z,12.87
2023-04-05T16:48:00.904Z,12.79
2023-04-05T16:50:03.664Z,12.70
2023-04-05T16:52:06.255Z,12.62
2023-04-05T16:54:08.873Z,12.57
2023-04-05T16:56:12.303Z,12.49
2023-04-05T16:58:14.875Z,12.39
2023-04-05T17:00:17.807Z,12.29
2023-04-05T17:02:21.851Z,12.18
2023-04-05T17:04:24.438Z,12.07
2023-04-05T17:06:29.295Z,11.96
2023-04-05T17:08:31.955Z,11.87
2023-04-05T17:10:36.027Z,11.75
2023-04-05T17:12:41.954Z,11.65
2023-04-05T17:14:44.542Z,11.57
2023-04-05T17:16:47.930Z,11.49
2023-04-05T17:18:52.344Z,11.42
2023-04-05T17:20:54.893Z,11.41
2023-04-05T17:22:58.272Z,11.34
2023-04-05T17:25:02.502Z,11.30
2023-04-05T17:27:05.498Z,11.20
2023-04-05T17:29:08.039Z,11.16
2023-04-05T17:31:11.643Z,11.11
2023-04-05T17:33:14.270Z,11.10
2023-04-05T17:35:18.446Z,11.03
2023-04-05T17:37:21.056Z,10.97
2023-04-05T17:39:23.623Z,10.92
2023-04-05T17:41:26.391Z,10.88
2023-04-05T17:43:28.916Z,10.84
2023-04-05T17:45:31.554Z,10.81
2023-04-05T17:47:34.251Z,10.77
2023-04-05T17:49:37.519Z,10.74
2023-04-05T17:51:42.293Z,10.67
2023-04-05T17:53:44.879Z,10.64
2023-04-05T17:55:47.470Z,10.58
2023-04-05T17:57:50.048Z,10.54
2023-04-05T17:59:52.607Z,10.52
2023-04-05T18:01:55.288Z,10.46
2023-04-05T18:03:59.209Z,10.43
2023-04-05T18:06:02.069Z,10.38
2023-04-05T18:08:06.489Z,10.37
2023-04-05T18:10:09.865Z,10.32
2023-04-05T18:12:12.416Z,10.28
2023-04-05T18:14:14.983Z,10.22
2023-04-05T18:16:17.545Z,10.20
2023-04-05T18:18:20.162Z,10.11
2023-04-05T18:20:22.691Z,10.07
2023-04-05T18:22:26.090Z,10.00
2023-04-05T18:24:30.415Z,9.95
2023-04-05T18:26:34.592Z,9.85
2023-04-05T18:28:37.246Z,9.80
2023-04-05T18:30:40.323Z,9.78
2023-04-05T18:32:42.906Z,9.62
2023-04-05T18:34:45.448Z,9.53
2023-04-05T18:36:47.986Z,9.48
2023-04-05T18:38:50.773Z,9.40
2023-04-05T18:41:02.049Z,9.35
2023-04-05T18:43:04.602Z,9.32
2023-04-05T18:45:07.807Z,9.26
2023-04-05T18:47:10.491Z,9.24
2023-04-05T18:49:15.660Z,9.18
2023-04-05T18:51:18.783Z,9.12
2023-04-05T18:53:21.662Z,9.09
2023-04-05T18:55:24.214Z,9.04
2023-04-05T18:57:28.583Z,8.98
2023-04-05T18:59:31.176Z,8.93
2023-04-05T19:01:33.888Z,8.89
2023-04-05T19:03:36.530Z,8.85
2023-04-05T19:05:39.098Z,8.79
2023-04-05T19:07:41.668Z,8.73
2023-04-05T19:09:44.266Z,8.66
2023-04-05T19:11:46.806Z,8.55
2023-04-05T19:13:50.780Z,8.46
2023-04-05T19:15:53.923Z,8.41
2023-04-05T19:17:58.104Z,8.40
2023-04-05T19:20:01.217Z,8.32
2023-04-05T19:22:03.802Z,8.26
2023-04-05T19:24:08.202Z,8.24
2023-04-05T19:26:10.849Z,8.21
2023-04-05T19:28:14.215Z,8.16
2023-04-05T19:30:18.192Z,8.10
2023-04-05T19:32:21.190Z,8.01
2023-04-05T19:34:23.766Z,7.89
2023-04-05T19:36:26.392Z,7.86
2023-04-05T19:38:29.012Z,7.81
2023-04-05T19:40:31.596Z,7.80
2023-04-05T19:42:34.626Z,7.63
2023-04-05T19:44:45.329Z,7.54
2023-04-05T19:46:49.219Z,7.47
2023-04-05T19:48:51.753Z,7.44
2023-04-05T19:50:57.888Z,7.40
2023-04-05T19:53:00.661Z,7.41
2023-04-05T19:55:07.729Z,7.41
2023-04-05T19:57:12.173Z,7.42
2023-04-05T19:59:29.083Z,7.45
2023-04-05T20:01:37.174Z,7.44
2023-04-05T20:03:42.349Z,7.44
2023-04-05T20:06:06.204Z,7.45
2023-04-05T20:08:09.404Z,7.46
2023-04-05T20:10:16.520Z,7.45
2023-04-05T20:12:22.408Z,7.45
2023-04-05T20:14:28.487Z,7.46
2023-04-05T20:16:33.192Z,7.45
2023-04-05T20:18:35.931Z,7.47
2023-04-05T20:20:47.589Z,7.40
2023-04-05T20:22:50.302Z,7.35
2023-04-05T20:24:52.899Z,7.49
2023-04-05T20:26:56.872Z,7.28
2023-04-05T20:29:02.109Z,7.10
2023-04-05T20:31:06.514Z,7.04
2023-04-05T20:33:09.478Z,7.03
2023-04-05T20:35:31.582Z,6.93
2023-04-05T20:37:35.326Z,6.90
2023-04-05T20:41:55.733Z,6.90
2023-04-05T20:43:58.934Z,6.87
2023-04-05T20:46:03.104Z,6.86
2023-04-05T20:48:06.488Z,6.83
2023-04-05T20:50:09.849Z,6.82
2023-04-05T20:52:12.417Z,6.79
2023-04-05T20:54:16.294Z,6.80
2023-04-05T20:56:19.316Z,6.79
2023-04-05T21:00:48.604Z,6.76
2023-04-05T21:02:51.836Z,6.82
2023-04-05T21:04:54.458Z,6.74
2023-04-05T21:06:57.068Z,6.74
2023-04-05T21:08:59.644Z,6.66
2023-04-05T21:11:03.949Z,6.61
2023-04-05T21:13:06.632Z,6.58
2023-04-05T21:19:08.584Z,6.43
2023-04-05T21:21:11.308Z,6.45
2023-04-05T21:23:13.866Z,6.41
2023-04-05T21:25:16.405Z,6.37
2023-04-05T21:27:20.315Z,6.35
2023-04-05T21:29:22.926Z,6.32
2023-04-05T21:31:25.598Z,6.35
2023-04-05T21:42:36.882Z,6.30
2023-04-05T21:44:39.544Z,6.27
2023-04-05T21:46:42.079Z,6.29
2023-04-05T21:48:44.622Z,6.24
2023-04-05T21:50:47.180Z,6.24
2023-04-05T21:52:49.815Z,6.25
2023-04-05T21:54:52.484Z,6.21
2023-04-05T21:56:55.011Z,6.25
2023-04-05T21:58:58.981Z,6.21
2023-04-05T22:01:01.595Z,6.20
2023-04-05T22:03:04.397Z,6.21
2023-04-05T22:05:08.558Z,6.22
2023-04-05T22:07:11.221Z,6.22
2023-04-05T22:09:13.832Z,6.21
2023-04-05T22:11:16.395Z,6.20
2023-04-05T22:13:18.931Z,6.20
2023-04-05T22:15:22.815Z,6.20
2023-04-05T22:17:25.557Z,6.21
2023-04-05T22:19:28.175Z,6.16
2023-04-05T22:21:30.790Z,6.12
2023-04-05T22:23:33.396Z,6.12
2023-04-05T22:25:35.979Z,6.06
2023-04-05T22:27:38.571Z,5.98
2023-04-05T22:29:41.237Z,5.99
2023-04-05T22:31:45.603Z,5.89
2023-04-05T22:33:48.192Z,5.93
2023-04-05T22:35:51.657Z,5.88
2023-04-05T22:37:54.221Z,5.90
2023-04-05T22:39:56.758Z,5.90
2023-04-05T22:41:59.320Z,5.87
2023-04-05T22:44:01.963Z,5.90
2023-04-05T22:46:04.628Z,5.90
2023-04-05T22:48:08.637Z,5.93
2023-04-05T22:50:11.484Z,5.93
2023-04-05T22:52:14.019Z,5.96
2023-04-05T22:54:16.542Z,6.00
2023-04-05T22:56:21.399Z,6.00
2023-04-05T22:58:23.958Z,6.02
2023-04-05T23:00:26.622Z,6.07
2023-04-05T23:02:30.150Z,6.09
2023-04-05T23:04:34.181Z,6.06
2023-04-05T23:06:36.742Z,6.01
2023-04-05T23:08:39.305Z,5.99
2023-04-05T23:10:42.702Z,5.98
2023-04-05T23:12:45.902Z,6.00
2023-04-05T23:14:48.432Z,5.97
2023-04-05T23:16:51.018Z,5.96
2023-04-05T23:18:53.620Z,5.84
2023-04-05T23:20:57.633Z,5.80
2023-04-05T23:23:01.526Z,5.68
2023-04-05T23:25:04.575Z,5.82
2023-04-05T23:27:07.151Z,5.89
2023-04-05T23:29:09.964Z,5.88
2023-04-05T23:31:12.669Z,5.72
2023-04-05T23:33:15.548Z,5.77
2023-04-05T23:35:18.138Z,5.70
2023-04-05T23:37:22.013Z,5.71
2023-04-05T23:39:27.413Z,5.64
2023-04-05T23:41:29.978Z,5.64
2023-04-05T23:43:33.271Z,5.61
2023-04-05T23:45:35.816Z,5.63
2023-04-05T23:47:38.494Z,5.57
2023-04-05T23:49:41.547Z,5.51
2023-04-05T23:51:44.123Z,5.50
2023-04-05T23:53:48.114Z,5.52
2023-04-05T23:55:53.285Z,5.56
2023-04-05T23:57:57.754Z,5.57
